Time;durP1;ratioP1;P1;durP2;ratioP2;P2;SDS_P1;SDS_P2;PMS_P1;PMS_P2;Temp;Humidity;BMP_temperature;BMP_pressure;BME280_temperature;BME280_humidity;BME280_pressure;Samples;Min_cycle;Max_cycle;Signal;HPM_P1;HPM_P2
2023/10/09 00:01:04;;;;;;;10.95;4.55;;;;;;;10.02;49.85;99600.05;1773423;80;21358;-79
2023/10/09 00:04:10;;;;;;;10.10;4.03;;;;;;;9.98;49.89;99605.92;1770919;81;21302;-79
2023/10/09 00:07:16;;;;;;;6.17;3.65;;;;;;;9.87;50.11;99606.38;1770284;81;21335;-79
2023/10/09 00:10:21;;;;;;;8.78;4.20;;;;;;;9.82;50.18;99604.73;1770931;81;21940;-79
2023/10/09 00:13:32;;;;;;;10.18;3.85;;;;;;;9.76;50.36;99604.13;1770824;81;21961;-79
2023/10/09 00:16:47;;;;;;;13.40;4.85;;;;;;;9.83;50.23;99611.05;1770783;81;21315;-79
2023/10/09 00:19:51;;;;;;;7.75;3.87;;;;;;;9.73;50.52;99607.23;1769325;81;21338;-79
2023/10/09 00:22:58;;;;;;;9.33;3.98;;;;;;;9.84;50.28;99616.86;1771110;81;21303;-79
2023/10/09 00:26:10;;;;;;;7.90;3.70;;;;;;;9.73;50.42;99609.95;1770928;81;21330;-79
2023/10/09 00:29:22;;;;;;;6.70;3.08;;;;;;;9.65;50.49;99616.38;1770886;81;21311;-79
2023/10/09 00:32:32;;;;;;;8.00;4.22;;;;;;;9.57;50.67;99611.52;1770890;81;21299;-79
2023/10/09 00:35:36;;;;;;;7.08;3.83;;;;;;;9.55;50.54;99620.39;1770942;81;21897;-78
2023/10/09 00:38:47;;;;;;;7.20;3.35;;;;;;;9.43;50.73;99618.13;1769570;81;21315;-79
2023/10/09 00:41:54;;;;;;;7.53;3.65;;;;;;;9.35;50.79;99622.30;1770873;81;21308;-79
2023/10/09 00:45:08;;;;;;;10.75;3.02;;;;;;;9.33;50.59;99626.26;1771033;81;21311;-79
2023/10/09 00:48:14;;;;;;;10.13;2.80;;;;;;;9.30;50.51;99630.19;1770300;81;21334;-79
2023/10/09 00:51:22;;;;;;;;;;;;;;;9.29;50.22;99635.33;1773640;81;21861;-79
2023/10/09 00:54:35;;;;;;;8.40;2.90;;;;;;;9.28;50.08;99635.00;1771119;81;20791;-79
2023/10/09 00:57:37;;;;;;;5.15;3.17;;;;;;;9.12;50.35;99644.67;1770800;81;21354;-79
2023/10/09 01:04:15;;;;;;;3.83;2.70;;;;;;;9.03;50.42;99643.04;1771060;81;21327;-79
2023/10/09 01:07:25;;;;;;;7.20;2.62;;;;;;;9.06;50.28;99654.96;1726764;83;21390;-79
2023/10/09 01:10:34;;;;;;;5.03;2.85;;;;;;;9.15;49.93;99659.33;1726755;83;21322;-79
2023/10/09 01:14:25;;;;;;;3.70;2.40;;;;;;;9.13;49.90;99657.31;1726638;83;21322;-79
2023/10/09 01:16:47;;;;;;;4.57;2.67;;;;;;;9.10;49.89;99664.48;1722231;82;21334;-79
2023/10/09 01:19:56;;;;;;;4.17;2.60;;;;;;;9.08;49.81;99673.34;1726406;83;21341;-79
2023/10/09 01:23:03;;;;;;;6.22;2.85;;;;;;;9.12;49.78;99677.41;1726551;83;21987;-79
2023/10/09 01:26:09;;;;;;;9.08;3.20;;;;;;;9.19;49.69;99680.61;1726577;83;21326;-79
2023/10/09 01:29:19;;;;;;;4.53;2.55;;;;;;;9.17;49.59;99679.95;1725567;83;21362;-79
2023/10/09 01:32:26;;;;;;;6.65;2.72;;;;;;;9.16;49.52;99690.51;1727429;83;21318;-79
2023/10/09 01:35:33;;;;;;;5.62;2.72;;;;;;;9.09;49.64;99696.89;1726120;83;21358;-79
2023/10/09 01:38:41;;;;;;;5.05;3.02;;;;;;;9.08;49.54;99706.96;1725895;83;21321;-79
2023/10/09 01:41:47;;;;;;;5.78;2.40;;;;;;;9.04;49.48;99710.23;1726683;83;21655;-79
2023/10/09 01:44:52;;;;;;;4.85;2.90;;;;;;;9.05;49.28;99717.38;1726636;83;21345;-79
2023/10/09 01:48:04;;;;;;;5.30;2.62;;;;;;;9.12;49.19;99721.91;1726615;83;21363;-79
2023/10/09 01:51:08;;;;;;;4.85;2.70;;;;;;;9.16;49.22;99726.50;1726024;83;21318;-79
2023/10/09 01:54:33;;;;;;;7.00;2.98;;;;;;;9.23;49.33;99724.76;1726614;83;21318;-79
2023/10/09 01:57:25;;;;;;;5.42;2.50;;;;;;;9.33;49.27;99737.64;1726635;83;21318;-79
2023/10/09 02:00:31;;;;;;;4.30;2.62;;;;;;;9.42;49.19;99730.23;1727222;83;21433;-79
2023/10/09 02:03:37;;;;;;;3.35;1.87;;;;;;;9.53;48.94;99743.97;1726083;83;21334;-79
2023/10/09 02:06:44;;;;;;;7.97;2.10;;;;;;;9.58;48.98;99743.74;1748980;80;21283;-79
2023/10/09 02:09:49;;;;;;;4.00;1.57;;;;;;;9.69;48.85;99749.27;1766262;81;21975;-79
2023/10/09 02:13:16;;;;;;;9.73;1.80;;;;;;;9.62;49.16;99745.59;1767456;81;21303;-79
2023/10/09 02:16:28;;;;;;;2.40;1.40;;;;;;;9.69;49.11;99747.91;1730733;83;21875;-79
2023/10/09 02:19:34;;;;;;;3.05;1.40;;;;;;;9.71;49.21;99751.32;1729970;83;21304;-79
2023/10/09 02:22:40;;;;;;;7.17;1.60;;;;;;;9.70;49.21;99752.36;1768288;81;21743;-79
2023/10/09 02:28:34;;;;;;;8.35;2.27;;;;;;;9.88;49.01;99752.88;1857206;76;22228;-79
2023/10/09 02:31:41;;;;;;;3.72;1.50;;;;;;;9.90;49.06;99755.41;1816085;79;21334;-79
2023/10/09 02:34:50;;;;;;;4.33;1.70;;;;;;;9.90;48.98;99754.05;1817187;79;21272;-79
2023/10/09 02:37:57;;;;;;;2.42;1.20;;;;;;;9.94;48.73;99763.05;1816724;79;21256;-79
2023/10/09 02:44:13;;;;;;;3.58;1.60;;;;;;;9.99;48.78;99763.34;1817253;79;21850;-79
2023/10/09 02:47:20;;;;;;;2.47;1.60;;;;;;;10.07;48.48;99757.45;1816730;79;21910;-79
2023/10/09 02:50:28;;;;;;;4.72;1.80;;;;;;;10.19;48.29;99762.80;1818138;79;21248;-79
2023/10/09 02:53:36;;;;;;;5.00;1.65;;;;;;;10.09;48.50;99764.96;1817264;79;21831;-79
2023/10/09 02:56:47;;;;;;;3.17;1.72;;;;;;;9.90;48.81;99768.55;1817140;79;21292;-79
2023/10/09 02:59:51;;;;;;;2.52;1.60;;;;;;;9.93;48.95;99760.52;1817181;79;21296;-79
2023/10/09 03:02:58;;;;;;;3.83;2.10;;;;;;;9.98;49.06;99771.22;1785106;80;21307;-79
2023/10/09 03:06:11;;;;;;;4.65;1.62;;;;;;;9.97;49.09;99771.38;1783462;80;21307;-79
2023/10/09 03:09:19;;;;;;;3.92;1.55;;;;;;;9.98;49.03;99776.68;1783580;80;21303;-79
2023/10/09 03:12:28;;;;;;;3.58;1.47;;;;;;;9.99;49.06;99776.16;1784677;80;21323;-79
2023/10/09 03:15:35;;;;;;;3.67;1.60;;;;;;;9.98;49.27;99772.58;1785157;80;21292;-79
2023/10/09 03:18:42;;;;;;;2.70;1.87;;;;;;;9.92;49.34;99789.69;1783585;80;21307;-79
2023/10/09 03:21:48;;;;;;;5.00;2.27;;;;;;;9.91;49.56;99782.53;1785109;80;21303;-79
2023/10/09 03:24:55;;;;;;;4.35;1.90;;;;;;;9.89;49.53;99786.50;1785109;80;21302;-79
2023/10/09 03:28:02;;;;;;;3.80;1.90;;;;;;;9.98;49.28;99802.63;1779155;80;21296;-80
2023/10/09 03:31:07;;;;;;;3.65;1.82;;;;;;;10.08;49.20;99802.89;1771850;81;21289;-80
2023/10/09 03:34:18;;;;;;;4.75;2.10;;;;;;;10.10;49.13;99805.75;1771594;81;21862;-79
2023/10/09 03:37:43;;;;;;;4.12;2.20;;;;;;;10.09;49.23;99812.78;1770142;81;21304;-79
2023/10/09 03:40:38;;;;;;;5.85;2.58;;;;;;;10.04;49.38;99807.88;1769600;81;21292;-79
2023/10/09 03:43:46;;;;;;;8.53;2.40;;;;;;;9.97;49.49;99817.34;1771437;81;21296;-79
2023/10/09 03:46:53;;;;;;;4.10;2.33;;;;;;;9.94;49.67;99826.41;1771019;81;21304;-79
2023/10/09 03:50:05;;;;;;;6.20;3.00;;;;;;;9.81;49.99;99832.48;1770655;81;21619;-79
2023/10/09 03:53:07;;;;;;;5.62;2.77;;;;;;;9.60;50.31;99844.61;1770805;81;21867;-78
2023/10/09 03:56:15;;;;;;;6.80;3.33;;;;;;;9.52;50.52;99833.73;1770553;81;21331;-79
2023/10/09 03:59:21;;;;;;;3.67;3.08;;;;;;;9.51;50.54;99836.14;1769816;81;21336;-79
2023/10/09 04:02:22;;;;;;;11.65;4.00;;;;;;;9.51;50.53;99844.33;1769094;81;21300;-79
2023/10/09 04:05:16;;;;;;;6.62;4.08;;;;;;;9.48;50.75;99843.64;1770463;81;21336;-79
2023/10/09 04:08:29;;;;;;;6.78;4.30;;;;;;;9.50;50.91;99839.36;1769471;81;21346;-79
2023/10/09 04:11:33;;;;;;;8.83;4.90;;;;;;;9.55;51.03;99845.16;1770956;81;21287;-78
2023/10/09 04:14:57;;;;;;;9.50;4.25;;;;;;;9.66;51.02;99851.55;1769991;81;21941;-79
2023/10/09 04:18:05;;;;;;;5.12;4.10;;;;;;;9.75;50.79;99845.52;1770902;81;21330;-79
2023/10/09 04:21:19;;;;;;;8.73;4.03;;;;;;;9.80;50.70;99849.06;1771436;81;21374;-79
2023/10/09 04:24:25;;;;;;;8.90;3.83;;;;;;;9.84;50.79;99860.81;1771100;81;21279;-81
2023/10/09 04:27:36;;;;;;;9.68;3.47;;;;;;;9.89;50.75;99862.99;1771159;81;21320;-79
2023/10/09 04:30:43;;;;;;;10.03;3.10;;;;;;;10.06;50.38;99862.33;1770609;80;21320;-79
2023/10/09 04:37:00;;;;;;;5.20;2.70;;;;;;;9.89;50.77;99867.94;1764745;81;21910;-79
2023/10/09 04:43:26;;;;;;;3.05;2.15;;;;;;;10.07;50.84;99878.55;1764923;80;22209;-81
2023/10/09 04:46:43;;;;;;;6.87;2.67;;;;;;;10.19;50.54;99877.59;1769209;81;21338;-78
2023/10/09 04:52:54;;;;;;;7.53;2.95;;;;;;;10.07;50.71;99890.86;1766579;81;21350;-79
2023/10/09 04:56:04;;;;;;;8.03;3.30;;;;;;;10.03;50.71;99887.30;1767789;81;21323;-79
2023/10/09 04:59:09;;;;;;;6.35;2.60;;;;;;;10.01;50.64;99890.72;1767275;81;21355;-79
2023/10/09 05:02:19;;;;;;;4.65;2.35;;;;;;;9.95;51.03;99898.61;1738931;81;21363;-79
2023/10/09 05:06:20;;;;;;;5.92;1.90;;;;;;;9.90;51.22;99894.73;1738976;82;21220;-79
2023/10/09 05:08:45;;;;;;;4.40;2.02;;;;;;;9.97;51.22;99900.66;1735616;82;22333;-79
2023/10/09 05:15:13;;;;;;;3.35;1.40;;;;;;;10.02;51.22;99912.91;1755675;81;21323;-79
2023/10/09 05:18:27;;;;;;;3.45;1.42;;;;;;;10.16;51.12;99897.95;1763937;81;21288;-78
2023/10/09 05:24:47;;;;;;;3.67;1.37;;;;;;;10.27;50.97;99928.12;1768943;81;21343;-80
2023/10/09 05:27:50;;;;;;;3.83;1.30;;;;;;;10.36;51.13;99918.82;1754209;81;21319;-80
2023/10/09 05:31:08;;;;;;;3.58;1.55;;;;;;;10.43;51.30;99925.23;1764170;80;21845;-80
2023/10/09 05:34:19;;;;;;;2.80;1.50;;;;;;;10.67;51.04;99932.36;1780846;80;21885;-80
2023/10/09 05:37:32;;;;;;;1.87;1.20;;;;;;;10.81;51.50;99941.63;1770645;80;21279;-80
2023/10/09 05:40:35;;;;;;;3.50;1.45;;;;;;;11.09;51.18;99935.52;1763950;80;21322;-80
2023/10/09 05:54:53;;;;;;;2.90;1.50;;;;;;;11.62;48.99;99939.82;1715080;83;21549;-80
2023/10/09 06:04:54;;;;;;;1.98;1.47;;;;;;;11.67;48.65;99952.94;1707214;83;21986;-80
2023/10/09 06:08:06;;;;;;;3.00;1.80;;;;;;;11.69;48.25;99974.13;1725085;82;21873;-78
2023/10/09 06:11:38;;;;;;;5.67;2.08;;;;;;;11.86;48.19;99980.28;1729270;80;21290;-80
2023/10/09 06:15:03;;;;;;;3.42;2.05;;;;;;;11.99;47.42;99970.30;1738078;80;21357;-79
2023/10/09 06:26:05;;;;;;;2.87;1.40;;;;;;;12.35;46.60;99984.50;1679324;84;21785;-79
2023/10/09 06:29:16;;;;;;;2.90;1.50;;;;;;;12.23;47.13;99992.91;1677014;84;21271;-79
2023/10/09 06:33:57;;;;;;;3.15;1.87;;;;;;;12.42;47.05;99995.03;1704367;82;21906;-79
2023/10/09 06:36:17;;;;;;;2.65;1.60;;;;;;;12.40;46.48;100007.23;1682658;82;21228;-79
2023/10/09 06:43:07;;;;;;;;;;;;;;;;;;;;;
2023/10/09 06:49:45;;;;;;;6.22;1.70;;;;;;;12.58;45.73;100031.47;1728115;81;21319;-80
2023/10/09 07:03:11;;;;;;;4.20;2.20;;;;;;;12.71;45.48;100037.94;1637415;84;21197;-80
2023/10/09 07:13:37;;;;;;;3.00;2.08;;;;;;;12.81;45.32;100049.10;1681601;84;21328;-80
2023/10/09 07:21:11;;;;;;;7.05;2.65;;;;;;;12.77;44.99;100057.72;1653485;85;22272;-81
2023/10/09 07:24:37;;;;;;;8.28;2.77;;;;;;;12.89;45.35;100069.03;1675783;84;21806;-81
2023/10/09 07:27:45;;;;;;;6.67;2.50;;;;;;;13.11;45.12;100069.84;1674795;84;21180;-83
2023/10/09 07:31:08;;;;;;;4.60;2.47;;;;;;;13.23;44.55;100072.94;1684528;84;21224;-81
2023/10/09 07:34:52;;;;;;;5.03;2.30;;;;;;;13.35;44.49;100067.20;1674562;84;21223;-80
2023/10/09 07:37:50;;;;;;;5.58;2.62;;;;;;;13.48;44.68;100075.55;1675614;84;22238;-80
2023/10/09 07:40:59;;;;;;;10.20;2.00;;;;;;;13.53;44.75;100083.19;1673861;84;21380;-80
2023/10/09 07:44:19;;;;;;;3.62;1.62;;;;;;;13.70;44.47;100074.11;1674949;84;21291;-80
2023/10/09 07:47:45;;;;;;;11.50;2.25;;;;;;;13.72;43.42;100075.59;1642739;84;21239;-81
2023/10/09 07:50:48;;;;;;;5.42;1.60;;;;;;;13.97;43.59;100077.83;1668698;84;21199;-81
2023/10/09 07:53:57;;;;;;;2.75;1.45;;;;;;;14.06;43.79;100077.98;1675212;84;21315;-82
2023/10/09 07:57:25;;;;;;;2.00;1.30;;;;;;;14.02;43.20;100070.69;1671456;84;22397;-80
2023/10/09 08:00:49;;;;;;;6.12;1.90;;;;;;;14.00;42.73;100085.67;1673409;84;21359;-80
2023/10/09 08:04:14;;;;;;;7.92;4.83;;;;;;;13.98;43.02;100085.05;1660001;85;21981;-81
2023/10/09 08:07:19;;;;;;;3.60;2.17;;;;;;;13.96;43.01;100088.51;1644443;86;22261;-82
2023/10/09 08:17:11;;;;;;;2.87;1.45;;;;;;;14.10;42.83;100097.67;1656882;85;21331;-81
2023/10/09 08:20:11;;;;;;;2.17;1.25;;;;;;;14.13;42.66;100089.88;1676379;84;21213;-82
2023/10/09 08:23:22;;;;;;;2.33;1.32;;;;;;;14.24;42.10;100092.02;1676063;84;21348;-82
2023/10/09 08:26:13;;;;;;;1.47;0.85;;;;;;;14.21;42.53;100101.20;1677917;84;21337;-82
2023/10/09 08:29:20;;;;;;;2.80;1.10;;;;;;;14.10;42.28;100126.02;1675893;84;21203;-81
2023/10/09 08:32:38;;;;;;;2.52;0.90;;;;;;;14.08;42.26;100127.30;1672003;84;21188;-80
2023/10/09 08:35:49;;;;;;;1.32;0.95;;;;;;;14.25;42.13;100130.00;1666293;84;21214;-79
2023/10/09 08:38:58;;;;;;;;;;;;;;;14.28;41.46;100127.70;1671966;84;21897;-80
2023/10/09 08:42:05;;;;;;;6.28;2.25;;;;;;;14.34;41.52;100139.78;1675538;84;20764;-80
2023/10/09 08:45:14;;;;;;;11.60;5.80;;;;;;;14.44;41.60;100141.63;1681266;84;21330;-80
2023/10/09 08:48:21;;;;;;;2.87;1.30;;;;;;;14.39;41.03;100142.77;1685153;84;21381;-81
2023/10/09 08:51:27;;;;;;;3.00;1.32;;;;;;;14.23;40.49;100151.38;1650799;85;21246;-80
2023/10/09 08:54:33;;;;;;;2.08;0.93;;;;;;;14.09;40.51;100138.61;1680525;84;21909;-80
2023/10/09 08:57:40;;;;;;;3.02;1.20;;;;;;;14.20;40.94;100155.91;1641770;86;21402;-81
2023/10/09 09:00:48;;;;;;;1.85;1.10;;;;;;;14.19;40.06;100152.31;1639745;86;21229;-80
2023/10/09 09:03:59;;;;;;;2.72;1.20;;;;;;;14.26;40.96;100156.48;1651826;84;21293;-81
2023/10/09 09:07:05;;;;;;;3.00;1.37;;;;;;;14.18;41.20;100148.39;1676900;84;21337;-83
2023/10/09 09:10:31;;;;;;;4.12;1.25;;;;;;;14.41;41.23;100159.09;1635795;86;21232;-81
2023/10/09 09:13:34;;;;;;;1.40;1.07;;;;;;;14.47;41.06;100164.61;1672711;84;21279;-80
2023/10/09 09:16:48;;;;;;;1.80;1.20;;;;;;;14.41;40.25;100159.09;1640624;86;21251;-81
2023/10/09 09:19:50;;;;;;;;;;;;;;;14.47;39.98;100148.09;1675123;84;21203;-81
2023/10/09 09:23:04;;;;;;;2.15;1.17;;;;;;;14.69;39.62;100139.75;1646326;86;20774;-80
2023/10/09 09:26:11;;;;;;;2.90;1.50;;;;;;;14.83;38.87;100146.98;1653036;85;21330;-80
2023/10/09 09:29:18;;;;;;;3.35;1.27;;;;;;;14.94;38.38;100144.98;1650097;85;21888;-81
2023/10/09 09:32:29;;;;;;;4.55;1.40;;;;;;;14.78;38.94;100153.12;1656400;85;21205;-81
2023/10/09 09:35:32;;;;;;;3.05;0.93;;;;;;;14.75;38.92;100157.66;1681292;84;21353;-81
2023/10/09 09:38:47;;;;;;;4.85;1.30;;;;;;;14.47;39.60;100158.27;1651512;85;21569;-81
2023/10/09 09:41:51;;;;;;;5.83;1.40;;;;;;;14.51;39.25;100151.33;1639731;86;21224;-81
2023/10/09 09:45:03;;;;;;;2.08;1.10;;;;;;;14.29;38.79;100151.40;1676056;84;21372;-82
2023/10/09 09:48:15;;;;;;;3.02;1.47;;;;;;;14.25;38.65;100154.77;1676919;84;21892;-82
2023/10/09 09:51:23;;;;;;;2.37;1.25;;;;;;;14.33;38.55;100157.35;1659127;86;21328;-82
2023/10/09 09:54:32;;;;;;;6.72;1.02;;;;;;;14.42;39.07;100160.25;1658431;85;21377;-82
2023/10/09 09:57:39;;;;;;;6.17;1.50;;;;;;;14.45;38.23;100161.76;1658774;86;21348;-82
2023/10/09 10:00:45;;;;;;;1.67;0.98;;;;;;;14.55;38.85;100167.76;1674951;84;21366;-81
2023/10/09 10:03:57;;;;;;;2.47;1.30;;;;;;;14.69;39.28;100170.88;1663616;84;21295;-82
2023/10/09 10:07:09;;;;;;;;;;;;;;;14.86;39.01;100167.20;1663380;84;21919;-82
2023/10/09 10:10:09;;;;;;;1.98;1.20;;;;;;;15.04;38.52;100155.07;1656588;86;20302;-82
2023/10/09 10:13:21;;;;;;;4.97;1.27;;;;;;;15.07;38.80;100178.08;1654530;86;21370;-81
2023/10/09 10:16:34;;;;;;;2.70;1.32;;;;;;;14.98;37.65;100184.83;1662752;84;21994;-82
2023/10/09 10:19:36;;;;;;;2.98;1.30;;;;;;;14.95;38.17;100181.11;1665409;84;21311;-81
2023/10/09 10:22:50;;;;;;;1.90;1.00;;;;;;;14.86;38.13;100185.64;1656715;84;21290;-81
2023/10/09 10:26:02;;;;;;;1.98;1.10;;;;;;;14.83;38.46;100185.01;1679516;84;21336;-81
2023/10/09 10:29:33;;;;;;;1.62;1.30;;;;;;;14.82;38.57;100181.09;1660785;84;21228;-82
2023/10/09 10:32:40;;;;;;;2.90;1.35;;;;;;;14.65;39.44;100179.22;1664287;84;21203;-82
2023/10/09 10:35:46;;;;;;;2.00;1.10;;;;;;;14.64;39.20;100167.05;1665068;84;21266;-82
2023/10/09 10:39:19;;;;;;;4.40;1.45;;;;;;;14.70;39.27;100175.85;1674151;84;21645;-81
2023/10/09 10:42:36;;;;;;;3.98;1.70;;;;;;;14.95;39.06;100179.73;1679399;84;21301;-82
2023/10/09 10:45:46;;;;;;;3.47;1.20;;;;;;;14.98;38.84;100179.33;1647604;85;21760;-80
2023/10/09 10:48:59;;;;;;;3.05;1.47;;;;;;;14.82;38.80;100181.09;1652450;85;21306;-81
2023/10/09 10:52:15;;;;;;;1.98;1.20;;;;;;;14.64;39.22;100176.69;1651223;86;21299;-82
2023/10/09 10:55:48;;;;;;;5.37;1.30;;;;;;;14.65;39.53;100176.47;1648821;86;21953;-82
2023/10/09 10:58:35;;;;;;;4.17;1.47;;;;;;;14.80;39.42;100179.05;1651467;86;21289;-82
2023/10/09 11:08:33;;;;;;;1.77;1.30;;;;;;;15.25;38.43;100171.12;1648200;86;21234;-81
2023/10/09 11:11:46;;;;;;;3.00;1.40;;;;;;;15.41;37.99;100174.83;1664997;84;21392;-82
2023/10/09 11:15:29;;;;;;;4.85;1.20;;;;;;;15.62;36.92;100174.29;1671940;84;21316;-81
2023/10/09 11:18:20;;;;;;;2.80;1.45;;;;;;;15.59;36.05;100179.72;1676269;84;21191;-81
2023/10/09 11:21:40;;;;;;;5.42;1.80;;;;;;;15.44;35.83;100175.80;1672814;84;21301;-80
2023/10/09 11:24:40;;;;;;;2.92;1.35;;;;;;;15.24;36.72;100181.80;1650514;86;21219;-80
2023/10/09 11:27:50;;;;;;;2.30;1.20;;;;;;;15.25;37.37;100185.74;1656151;86;21332;-81
2023/10/09 11:30:55;;;;;;;1.72;1.15;;;;;;;14.90;37.41;100187.77;1645149;86;21867;-80
2023/10/09 11:34:02;;;;;;;2.02;1.40;;;;;;;14.70;37.31;100186.33;1648471;85;21192;-80
2023/10/09 11:37:10;;;;;;;3.08;1.52;;;;;;;14.84;37.91;100198.24;1666054;84;21347;-80
2023/10/09 11:44:04;;;;;;;3.70;1.45;;;;;;;15.04;36.82;100200.52;1630673;86;21973;-80
2023/10/09 11:47:23;;;;;;;3.85;1.92;;;;;;;15.02;37.58;100194.38;1665269;85;21470;-80
2023/10/09 11:50:22;;;;;;;2.20;1.30;;;;;;;15.19;37.54;100200.86;1631018;87;21836;-80
2023/10/09 11:56:33;;;;;;;3.10;1.17;;;;;;;15.07;36.53;100195.98;1653098;84;21923;-80
2023/10/09 11:59:41;;;;;;;2.98;1.37;;;;;;;15.09;36.38;100204.88;1667306;84;21213;-80
2023/10/09 12:02:49;;;;;;;3.08;1.92;;;;;;;15.00;37.25;100206.12;1653014;84;21320;-80
2023/10/09 12:05:56;;;;;;;2.62;1.27;;;;;;;14.87;37.04;100192.33;1661435;84;21389;-80
2023/10/09 12:09:05;;;;;;;6.08;1.98;;;;;;;14.95;37.41;100192.13;1670147;84;21821;-80
2023/10/09 12:12:12;;;;;;;2.10;1.67;;;;;;;15.08;37.75;100199.05;1675655;84;21685;-81
2023/10/09 12:15:19;;;;;;;3.25;2.20;;;;;;;15.11;37.59;100202.46;1666074;84;21379;-81
2023/10/09 12:18:28;;;;;;;2.08;1.45;;;;;;;15.17;37.21;100204.38;1664037;85;21381;-81
2023/10/09 12:21:35;;;;;;;1.85;1.30;;;;;;;15.18;36.25;100206.91;1657996;84;21371;-80
2023/10/09 12:24:43;;;;;;;3.70;1.47;;;;;;;15.18;36.00;100199.17;1649631;86;21331;-80
2023/10/09 12:27:48;;;;;;;3.27;1.20;;;;;;;15.09;35.43;100204.02;1665588;86;21377;-80
2023/10/09 12:30:52;;;;;;;2.30;1.50;;;;;;;15.21;35.83;100187.75;1662203;84;21322;-80
2023/10/09 12:33:44;;;;;;;2.77;1.35;;;;;;;15.23;35.16;100203.52;1657439;86;21956;-80
2023/10/09 12:36:54;;;;;;;;;;;;;;;15.28;35.59;100209.25;1668351;86;21875;-80
2023/10/09 12:40:03;;;;;;;5.80;1.62;;;;;;;15.41;35.90;100193.28;1666851;84;20282;-80
2023/10/09 12:43:27;;;;;;;2.55;1.62;;;;;;;15.34;36.08;100195.50;1675477;84;21241;-81
2023/10/09 12:46:22;;;;;;;6.35;1.30;;;;;;;15.22;35.84;100187.53;1659370;84;21326;-81
2023/10/09 12:49:30;;;;;;;3.17;1.92;;;;;;;15.18;35.97;100194.51;1667730;86;21360;-81
2023/10/09 12:52:37;;;;;;;2.60;1.60;;;;;;;15.12;36.60;100197.27;1654508;86;21326;-81
2023/10/09 12:55:47;;;;;;;2.83;1.52;;;;;;;15.38;36.65;100184.88;1696610;84;21341;-80
2023/10/09 12:58:56;;;;;;;1.90;1.20;;;;;;;15.33;36.36;100175.02;1695340;84;21357;-81
2023/10/09 13:02:05;;;;;;;4.45;1.60;;;;;;;15.37;36.25;100180.44;1693927;84;21368;-81
2023/10/09 13:05:25;;;;;;;5.10;1.42;;;;;;;15.41;36.50;100172.61;1667847;84;21327;-81
2023/10/09 13:08:21;;;;;;;4.42;1.40;;;;;;;15.39;36.34;100176.11;1668027;86;21330;-81
2023/10/09 13:11:26;;;;;;;2.00;1.40;;;;;;;15.43;36.24;100168.59;1687009;84;21307;-81
2023/10/09 13:14:33;;;;;;;3.12;1.82;;;;;;;15.54;35.49;100170.70;1699193;84;21334;-81
2023/10/09 13:17:33;;;;;;;3.05;1.70;;;;;;;15.39;36.10;100174.20;1698244;84;21313;-81
2023/10/09 13:20:27;;;;;;;9.03;1.60;;;;;;;15.19;36.36;100174.16;1698302;84;21333;-81
2023/10/09 13:23:17;;;;;;;4.65;1.62;;;;;;;15.05;35.49;100178.80;1698089;84;21373;-80
2023/10/09 13:26:17;;;;;;;1.92;1.70;;;;;;;15.01;35.03;100181.67;1681099;84;21335;-80
2023/10/09 13:28:57;;;;;;;2.35;1.70;;;;;;;15.00;35.16;100181.33;1662747;86;22013;-80
2023/10/09 13:31:52;;;;;;;2.83;2.10;;;;;;;15.15;35.59;100188.56;1665316;86;21356;-79
2023/10/09 13:34:44;;;;;;;3.05;1.55;;;;;;;15.04;34.98;100184.52;1666452;86;21394;-80
2023/10/09 13:41:40;;;;;;;3.47;1.70;;;;;;;14.94;34.93;100172.53;1643806;85;21241;-80
2023/10/09 13:44:48;;;;;;;4.42;1.67;;;;;;;14.86;35.72;100180.13;1642239;87;22001;-80
2023/10/09 13:47:55;;;;;;;2.55;1.90;;;;;;;14.75;35.70;100171.42;1614601;88;21359;-80
2023/10/09 13:51:07;;;;;;;3.62;1.85;;;;;;;14.61;36.08;100171.05;1616016;88;21335;-80
2023/10/09 13:55:15;;;;;;;3.22;1.80;;;;;;;14.50;36.52;100167.53;1618039;88;22571;-80
2023/10/09 13:57:31;;;;;;;2.52;1.55;;;;;;;14.48;36.48;100162.73;1645548;86;21893;-80
2023/10/09 14:00:42;;;;;;;2.75;1.65;;;;;;;14.61;36.30;100170.20;1645809;87;21921;-80
2023/10/09 14:03:52;;;;;;;2.52;1.50;;;;;;;14.55;36.46;100167.76;1646907;87;21894;-80
2023/10/09 14:07:05;;;;;;;3.70;1.82;;;;;;;14.44;36.32;100169.14;1647037;87;21300;-80
2023/10/09 14:10:25;;;;;;;2.75;1.85;;;;;;;14.30;36.04;100172.87;1645388;87;21951;-80
2023/10/09 14:13:33;;;;;;;2.65;1.65;;;;;;;14.31;36.12;100173.23;1632390;87;21369;-80
2023/10/09 14:16:48;;;;;;;1.65;1.50;;;;;;;14.19;36.25;100172.94;1626227;87;21373;-80
2023/10/09 14:20:25;;;;;;;4.53;1.55;;;;;;;14.14;36.43;100180.95;1627200;88;21349;-80
2023/10/09 14:23:20;;;;;;;3.85;1.60;;;;;;;14.10;35.21;100189.81;1627916;88;21349;-80
2023/10/09 14:26:18;;;;;;;2.60;1.65;;;;;;;14.17;35.55;100198.97;1627242;88;21326;-80
2023/10/09 14:29:19;;;;;;;1.80;1.50;;;;;;;13.97;36.18;100201.06;1626954;88;21947;-80
2023/10/09 14:32:16;;;;;;;2.10;1.55;;;;;;;13.85;36.75;100206.78;1626159;88;21247;-80
2023/10/09 14:35:13;;;;;;;4.60;1.62;;;;;;;13.74;36.28;100197.72;1627550;88;21952;-80
2023/10/09 14:38:04;;;;;;;3.65;2.00;;;;;;;13.73;36.79;100197.38;1628205;88;21984;-80
2023/10/09 14:41:03;;;;;;;2.00;1.52;;;;;;;13.71;36.92;100196.73;1627659;87;21341;-80
2023/10/09 14:43:58;;;;;;;2.30;1.60;;;;;;;13.74;37.11;100206.81;1626606;85;21311;-80
2023/10/09 14:46:49;;;;;;;2.70;1.75;;;;;;;13.82;37.29;100208.55;1676913;85;22702;-81
2023/10/09 14:50:01;;;;;;;2.33;1.55;;;;;;;13.68;37.59;100214.98;1676734;85;21339;-80
2023/10/09 14:53:19;;;;;;;2.42;1.65;;;;;;;13.61;37.89;100220.97;1677083;85;21335;-80
2023/10/09 14:56:35;;;;;;;3.70;1.92;;;;;;;13.64;37.95;100223.30;1682856;85;21341;-80
2023/10/09 14:59:43;;;;;;;2.25;1.50;;;;;;;13.69;37.90;100218.06;1645422;87;21993;-80
2023/10/09 15:02:52;;;;;;;3.05;1.62;;;;;;;13.68;37.91;100216.36;1646078;87;21340;-81
2023/10/09 15:06:02;;;;;;;2.50;1.70;;;;;;;13.54;38.19;100218.99;1688698;85;21325;-80
2023/10/09 15:09:22;;;;;;;2.12;1.77;;;;;;;13.52;38.19;100223.85;1688679;85;21557;-81
2023/10/09 15:12:30;;;;;;;6.92;3.45;;;;;;;13.47;38.44;100225.50;1645812;87;21329;-80
2023/10/09 15:15:36;;;;;;;2.80;1.77;;;;;;;13.53;38.51;100228.29;1645217;87;21941;-81
2023/10/09 15:18:42;;;;;;;3.95;2.60;;;;;;;13.47;38.72;100220.00;1644821;87;21925;-81
2023/10/09 15:21:50;;;;;;;4.03;2.50;;;;;;;13.36;38.84;100226.88;1687909;85;21360;-81
2023/10/09 15:24:56;;;;;;;3.90;2.22;;;;;;;13.30;38.92;100225.74;1688210;85;21328;-83
2023/10/09 15:28:02;;;;;;;7.58;3.20;;;;;;;13.10;39.12;100238.40;1660541;86;21339;-81
2023/10/09 15:31:11;;;;;;;7.25;2.75;;;;;;;12.99;39.37;100239.77;1660588;86;21354;-81
2023/10/09 15:34:18;;;;;;;5.78;2.65;;;;;;;12.96;39.51;100237.39;1661010;86;21941;-80
2023/10/09 15:37:24;;;;;;;8.55;2.42;;;;;;;12.88;39.70;100244.36;1661516;86;21952;-80
2023/10/09 15:40:33;;;;;;;5.60;2.47;;;;;;;12.72;39.95;100252.31;1667036;85;21322;-80
2023/10/09 15:43:38;;;;;;;5.30;2.70;;;;;;;12.63;40.26;100257.57;1691271;83;21393;-80
2023/10/09 15:46:47;;;;;;;5.03;2.47;;;;;;;12.62;40.40;100255.03;1697572;84;21362;-80
2023/10/09 15:49:54;;;;;;;5.87;2.98;;;;;;;12.59;40.46;100263.63;1699779;84;21358;-80
2023/10/09 15:53:02;;;;;;;13.68;3.12;;;;;;;12.54;40.49;100273.28;1699288;84;21315;-80
2023/10/09 15:56:10;;;;;;;4.30;2.77;;;;;;;12.38;40.69;100272.64;1699466;84;21322;-80
2023/10/09 15:59:16;;;;;;;3.77;2.50;;;;;;;12.32;40.83;100274.22;1677751;84;21389;-80
2023/10/09 16:02:21;;;;;;;5.10;2.95;;;;;;;12.21;41.11;100268.69;1698121;84;21350;-80
2023/10/09 16:05:30;;;;;;;5.22;3.05;;;;;;;12.13;41.25;100279.73;1699572;84;21932;-80
2023/10/09 16:08:38;;;;;;;3.92;2.50;;;;;;;12.08;41.46;100281.34;1698909;84;22212;-80
2023/10/09 16:11:44;;;;;;;5.55;3.40;;;;;;;11.85;41.94;100283.60;1693634;84;21373;-80
2023/10/09 16:14:51;;;;;;;12.33;5.60;;;;;;;11.83;42.09;100287.06;1692893;84;21659;-80
2023/10/09 16:18:06;;;;;;;23.07;8.30;;;;;;;11.82;42.19;100289.48;1692574;84;21359;-80
2023/10/09 16:21:08;;;;;;;23.67;9.33;;;;;;;11.76;42.44;100288.30;1691235;84;21297;-80
2023/10/09 16:24:15;;;;;;;25.92;11.05;;;;;;;11.88;42.31;100303.80;1692722;84;21742;-80
2023/10/09 16:27:23;;;;;;;23.45;9.15;;;;;;;11.86;42.46;100295.45;1681180;84;21546;-80
2023/10/09 16:30:28;;;;;;;10.15;4.50;;;;;;;12.01;42.36;100295.80;1682184;85;21632;-80